Terminal Aerodrome Forecast
Issued by NWS

Home | Current Version | Previous Version | Text Only | Print | Product List | Glossary On
Versions: 1 2 3 4 5 6 7 8 9 10 11 12 13 14 15 16 17 18 19 20 21 22 23 24 25 26 27 28 29 30 31 32 33 34 35
000
FTUS43 KIND 231720
TAFHUF
TAF
KHUF 231720Z 2318/2418 18003KT P6SM SKC
     FM240600 VRB04KT P6SM VCSH BKN090
     FM241000 14005KT P6SM BKN080
     FM241400 15006KT 6SM -SHRA BR BKN060
     FM241700 17008KT 6SM -SHRA BR OVC028=

USA.gov is the U.S. government's official web portal to all federal, state and local government web resources and services.